sensor_id;sensor_type;location;lat;lon;timestamp;P1;durP1;ratioP1;P2;durP2;ratioP2
47659;SDS011;33403;43.608;1.458;2022-08-24T00:00:12;2.03;;;1.42;;
47659;SDS011;33403;43.608;1.458;2022-08-24T00:02:38;1.50;;;1.30;;
47659;SDS011;33403;43.608;1.458;2022-08-24T00:05:05;1.63;;;1.25;;
47659;SDS011;33403;43.608;1.458;2022-08-24T00:07:32;1.60;;;1.20;;
47659;SDS011;33403;43.608;1.458;2022-08-24T00:09:58;5.13;;;1.50;;
47659;SDS011;33403;43.608;1.458;2022-08-24T00:12:25;2.40;;;1.50;;
47659;SDS011;33403;43.608;1.458;2022-08-24T00:14:51;2.58;;;1.52;;
47659;SDS011;33403;43.608;1.458;2022-08-24T00:17:17;1.60;;;1.40;;
47659;SDS011;33403;43.608;1.458;2022-08-24T00:19:44;3.10;;;1.70;;
47659;SDS011;33403;43.608;1.458;2022-08-24T00:22:10;1.55;;;1.30;;
47659;SDS011;33403;43.608;1.458;2022-08-24T00:24:37;2.97;;;1.77;;
47659;SDS011;33403;43.608;1.458;2022-08-24T00:27:03;4.10;;;1.40;;
47659;SDS011;33403;43.608;1.458;2022-08-24T00:29:30;1.52;;;1.30;;
47659;SDS011;33403;43.608;1.458;2022-08-24T00:31:56;2.13;;;1.50;;
47659;SDS011;33403;43.608;1.458;2022-08-24T00:34:23;2.17;;;1.30;;
47659;SDS011;33403;43.608;1.458;2022-08-24T00:36:50;1.50;;;1.40;;
47659;SDS011;33403;43.608;1.458;2022-08-24T00:39:17;5.47;;;1.35;;
47659;SDS011;33403;43.608;1.458;2022-08-24T00:41:44;1.30;;;1.20;;
47659;SDS011;33403;43.608;1.458;2022-08-24T00:44:11;1.55;;;1.42;;
47659;SDS011;33403;43.608;1.458;2022-08-24T00:47:00;2.47;;;1.38;;
47659;SDS011;33403;43.608;1.458;2022-08-24T00:49:41;2.28;;;1.30;;
47659;SDS011;33403;43.608;1.458;2022-08-24T00:52:13;2.35;;;1.40;;
47659;SDS011;33403;43.608;1.458;2022-08-24T00:54:41;1.45;;;1.08;;
47659;SDS011;33403;43.608;1.458;2022-08-24T00:57:08;1.35;;;1.20;;
47659;SDS011;33403;43.608;1.458;2022-08-24T00:59:38;1.85;;;1.08;;
47659;SDS011;33403;43.608;1.458;2022-08-24T01:02:10;2.90;;;1.20;;
47659;SDS011;33403;43.608;1.458;2022-08-24T01:04:38;1.33;;;1.23;;
47659;SDS011;33403;43.608;1.458;2022-08-24T01:07:06;1.80;;;1.30;;
47659;SDS011;33403;43.608;1.458;2022-08-24T01:09:32;1.27;;;1.17;;
47659;SDS011;33403;43.608;1.458;2022-08-24T01:11:58;1.77;;;1.30;;
47659;SDS011;33403;43.608;1.458;2022-08-24T01:14:24;2.63;;;1.30;;
47659;SDS011;33403;43.608;1.458;2022-08-24T01:16:50;1.10;;;1.00;;
47659;SDS011;33403;43.608;1.458;2022-08-24T01:19:36;1.38;;;1.10;;
47659;SDS011;33403;43.608;1.458;2022-08-24T01:24:28;2.13;;;1.33;;
47659;SDS011;33403;43.608;1.458;2022-08-24T01:26:54;1.50;;;1.35;;
47659;SDS011;33403;43.608;1.458;2022-08-24T01:29:22;1.30;;;1.20;;
47659;SDS011;33403;43.608;1.458;2022-08-24T01:31:50;1.95;;;1.27;;
47659;SDS011;33403;43.608;1.458;2022-08-24T01:34:16;1.63;;;1.30;;
47659;SDS011;33403;43.608;1.458;2022-08-24T01:36:43;2.47;;;1.20;;
47659;SDS011;33403;43.608;1.458;2022-08-24T01:39:14;1.85;;;1.50;;
47659;SDS011;33403;43.608;1.458;2022-08-24T01:41:41;2.05;;;1.40;;
47659;SDS011;33403;43.608;1.458;2022-08-24T01:44:07;2.00;;;1.40;;
47659;SDS011;33403;43.608;1.458;2022-08-24T01:46:33;2.22;;;1.60;;
47659;SDS011;33403;43.608;1.458;2022-08-24T01:48:59;3.58;;;1.65;;
47659;SDS011;33403;43.608;1.458;2022-08-24T01:51:29;3.22;;;1.70;;
47659;SDS011;33403;43.608;1.458;2022-08-24T01:53:57;1.90;;;1.70;;
47659;SDS011;33403;43.608;1.458;2022-08-24T01:56:24;2.83;;;2.00;;
47659;SDS011;33403;43.608;1.458;2022-08-24T01:58:50;2.25;;;1.85;;
47659;SDS011;33403;43.608;1.458;2022-08-24T02:01:16;2.92;;;1.77;;
47659;SDS011;33403;43.608;1.458;2022-08-24T02:03:43;4.00;;;1.80;;
47659;SDS011;33403;43.608;1.458;2022-08-24T02:06:09;2.65;;;1.70;;
47659;SDS011;33403;43.608;1.458;2022-08-24T02:08:35;3.83;;;2.00;;
47659;SDS011;33403;43.608;1.458;2022-08-24T02:11:02;2.17;;;1.80;;
47659;SDS011;33403;43.608;1.458;2022-08-24T02:13:30;2.97;;;2.00;;
47659;SDS011;33403;43.608;1.458;2022-08-24T02:15:56;2.75;;;2.00;;
47659;SDS011;33403;43.608;1.458;2022-08-24T02:18:23;1.90;;;1.70;;
47659;SDS011;33403;43.608;1.458;2022-08-24T02:20:49;3.40;;;1.85;;
47659;SDS011;33403;43.608;1.458;2022-08-24T02:23:15;2.55;;;1.80;;
47659;SDS011;33403;43.608;1.458;2022-08-24T02:25:41;4.63;;;1.70;;
47659;SDS011;33403;43.608;1.458;2022-08-24T02:28:08;1.92;;;1.48;;
47659;SDS011;33403;43.608;1.458;2022-08-24T02:30:34;3.28;;;1.60;;
47659;SDS011;33403;43.608;1.458;2022-08-24T02:33:00;2.40;;;1.60;;
47659;SDS011;33403;43.608;1.458;2022-08-24T02:35:26;2.53;;;1.60;;
47659;SDS011;33403;43.608;1.458;2022-08-24T02:37:53;2.95;;;1.60;;
47659;SDS011;33403;43.608;1.458;2022-08-24T02:40:20;2.08;;;1.58;;
47659;SDS011;33403;43.608;1.458;2022-08-24T02:42:46;3.13;;;1.73;;
47659;SDS011;33403;43.608;1.458;2022-08-24T02:45:12;1.42;;;1.10;;
47659;SDS011;33403;43.608;1.458;2022-08-24T02:47:38;1.88;;;1.50;;
47659;SDS011;33403;43.608;1.458;2022-08-24T02:50:07;2.47;;;1.50;;
47659;SDS011;33403;43.608;1.458;2022-08-24T02:52:34;1.85;;;1.50;;
47659;SDS011;33403;43.608;1.458;2022-08-24T02:55:00;2.38;;;1.48;;
47659;SDS011;33403;43.608;1.458;2022-08-24T02:57:27;2.00;;;1.30;;
47659;SDS011;33403;43.608;1.458;2022-08-24T02:59:53;1.98;;;1.52;;
47659;SDS011;33403;43.608;1.458;2022-08-24T03:02:19;1.40;;;1.30;;
47659;SDS011;33403;43.608;1.458;2022-08-24T03:04:44;2.22;;;1.55;;
47659;SDS011;33403;43.608;1.458;2022-08-24T03:07:11;3.05;;;1.27;;
47659;SDS011;33403;43.608;1.458;2022-08-24T03:09:37;3.53;;;1.40;;
47659;SDS011;33403;43.608;1.458;2022-08-24T03:12:03;2.25;;;1.50;;
47659;SDS011;33403;43.608;1.458;2022-08-24T03:14:29;1.60;;;1.20;;
47659;SDS011;33403;43.608;1.458;2022-08-24T03:16:55;1.58;;;1.40;;
47659;SDS011;33403;43.608;1.458;2022-08-24T03:19:21;2.03;;;1.40;;
47659;SDS011;33403;43.608;1.458;2022-08-24T03:21:47;1.30;;;1.20;;
47659;SDS011;33403;43.608;1.458;2022-08-24T03:24:14;3.38;;;1.30;;
47659;SDS011;33403;43.608;1.458;2022-08-24T03:26:40;1.88;;;1.30;;
47659;SDS011;33403;43.608;1.458;2022-08-24T03:29:06;1.73;;;1.63;;
47659;SDS011;33403;43.608;1.458;2022-08-24T03:31:32;2.47;;;1.58;;
47659;SDS011;33403;43.608;1.458;2022-08-24T03:33:58;2.22;;;1.60;;
47659;SDS011;33403;43.608;1.458;2022-08-24T03:36:25;2.22;;;1.50;;
47659;SDS011;33403;43.608;1.458;2022-08-24T03:38:51;1.98;;;1.52;;
47659;SDS011;33403;43.608;1.458;2022-08-24T03:41:17;2.75;;;1.40;;
47659;SDS011;33403;43.608;1.458;2022-08-24T03:43:43;1.48;;;1.38;;
47659;SDS011;33403;43.608;1.458;2022-08-24T03:46:19;1.40;;;1.30;;
47659;SDS011;33403;43.608;1.458;2022-08-24T03:48:46;2.33;;;1.48;;
47659;SDS011;33403;43.608;1.458;2022-08-24T03:51:13;2.13;;;1.50;;
47659;SDS011;33403;43.608;1.458;2022-08-24T03:53:40;3.08;;;1.52;;
47659;SDS011;33403;43.608;1.458;2022-08-24T03:56:06;2.20;;;1.55;;
47659;SDS011;33403;43.608;1.458;2022-08-24T03:58:34;3.00;;;1.70;;
47659;SDS011;33403;43.608;1.458;2022-08-24T04:01:00;2.35;;;1.40;;
47659;SDS011;33403;43.608;1.458;2022-08-24T04:03:26;2.03;;;1.65;;
47659;SDS011;33403;43.608;1.458;2022-08-24T04:05:53;3.38;;;1.60;;
47659;SDS011;33403;43.608;1.458;2022-08-24T04:08:19;2.75;;;1.90;;
47659;SDS011;33403;43.608;1.458;2022-08-24T04:10:45;2.15;;;1.58;;
47659;SDS011;33403;43.608;1.458;2022-08-24T04:13:12;2.30;;;1.50;;
47659;SDS011;33403;43.608;1.458;2022-08-24T04:15:39;1.67;;;1.50;;
47659;SDS011;33403;43.608;1.458;2022-08-24T04:18:06;2.17;;;1.50;;
47659;SDS011;33403;43.608;1.458;2022-08-24T04:20:36;3.55;;;1.63;;
47659;SDS011;33403;43.608;1.458;2022-08-24T04:23:02;3.92;;;1.85;;
47659;SDS011;33403;43.608;1.458;2022-08-24T04:25:28;5.28;;;1.63;;
47659;SDS011;33403;43.608;1.458;2022-08-24T04:27:54;2.20;;;1.83;;
47659;SDS011;33403;43.608;1.458;2022-08-24T04:30:20;2.55;;;1.70;;
47659;SDS011;33403;43.608;1.458;2022-08-24T04:32:46;2.13;;;1.50;;
47659;SDS011;33403;43.608;1.458;2022-08-24T04:35:12;1.65;;;1.42;;
47659;SDS011;33403;43.608;1.458;2022-08-24T04:37:38;1.98;;;1.77;;
47659;SDS011;33403;43.608;1.458;2022-08-24T04:40:05;1.98;;;1.45;;
47659;SDS011;33403;43.608;1.458;2022-08-24T04:42:32;3.10;;;1.88;;
47659;SDS011;33403;43.608;1.458;2022-08-24T04:44:59;3.15;;;1.60;;
47659;SDS011;33403;43.608;1.458;2022-08-24T04:47:25;3.72;;;1.70;;
47659;SDS011;33403;43.608;1.458;2022-08-24T04:49:51;2.92;;;1.60;;
47659;SDS011;33403;43.608;1.458;2022-08-24T04:52:17;2.60;;;1.65;;
47659;SDS011;33403;43.608;1.458;2022-08-24T04:54:43;1.80;;;1.70;;
47659;SDS011;33403;43.608;1.458;2022-08-24T04:57:09;2.25;;;1.70;;
47659;SDS011;33403;43.608;1.458;2022-08-24T04:59:35;3.53;;;1.75;;
47659;SDS011;33403;43.608;1.458;2022-08-24T05:02:01;3.35;;;1.80;;
47659;SDS011;33403;43.608;1.458;2022-08-24T05:04:27;3.63;;;1.60;;
47659;SDS011;33403;43.608;1.458;2022-08-24T05:06:53;2.75;;;1.70;;
47659;SDS011;33403;43.608;1.458;2022-08-24T05:09:19;2.35;;;1.60;;
47659;SDS011;33403;43.608;1.458;2022-08-24T05:11:45;1.83;;;1.73;;
47659;SDS011;33403;43.608;1.458;2022-08-24T05:14:11;3.33;;;1.80;;
47659;SDS011;33403;43.608;1.458;2022-08-24T05:16:37;3.03;;;1.60;;
47659;SDS011;33403;43.608;1.458;2022-08-24T05:19:04;2.10;;;1.80;;
47659;SDS011;33403;43.608;1.458;2022-08-24T05:21:31;3.60;;;1.80;;
47659;SDS011;33403;43.608;1.458;2022-08-24T05:23:57;2.22;;;1.85;;
47659;SDS011;33403;43.608;1.458;2022-08-24T05:26:24;2.13;;;1.67;;
47659;SDS011;33403;43.608;1.458;2022-08-24T05:28:54;3.83;;;2.03;;
47659;SDS011;33403;43.608;1.458;2022-08-24T05:31:21;2.70;;;1.95;;
47659;SDS011;33403;43.608;1.458;2022-08-24T05:33:48;3.22;;;2.03;;
47659;SDS011;33403;43.608;1.458;2022-08-24T05:36:16;3.20;;;1.92;;
47659;SDS011;33403;43.608;1.458;2022-08-24T05:38:42;3.53;;;1.85;;
47659;SDS011;33403;43.608;1.458;2022-08-24T05:41:09;3.67;;;2.10;;
47659;SDS011;33403;43.608;1.458;2022-08-24T05:43:35;3.88;;;1.88;;
47659;SDS011;33403;43.608;1.458;2022-08-24T05:46:01;2.78;;;1.70;;
47659;SDS011;33403;43.608;1.458;2022-08-24T05:48:27;4.10;;;2.10;;
47659;SDS011;33403;43.608;1.458;2022-08-24T05:50:56;2.67;;;2.30;;
47659;SDS011;33403;43.608;1.458;2022-08-24T05:53:22;2.80;;;2.03;;
47659;SDS011;33403;43.608;1.458;2022-08-24T05:55:49;3.10;;;2.17;;
47659;SDS011;33403;43.608;1.458;2022-08-24T05:58:15;2.95;;;2.10;;
47659;SDS011;33403;43.608;1.458;2022-08-24T06:00:41;5.45;;;2.40;;
47659;SDS011;33403;43.608;1.458;2022-08-24T06:03:11;3.83;;;2.47;;
47659;SDS011;33403;43.608;1.458;2022-08-24T06:05:39;4.38;;;1.90;;
47659;SDS011;33403;43.608;1.458;2022-08-24T06:08:05;2.25;;;1.90;;
47659;SDS011;33403;43.608;1.458;2022-08-24T06:10:31;2.70;;;2.08;;
47659;SDS011;33403;43.608;1.458;2022-08-24T06:12:57;2.17;;;1.98;;
47659;SDS011;33403;43.608;1.458;2022-08-24T06:15:24;2.85;;;1.90;;
47659;SDS011;33403;43.608;1.458;2022-08-24T06:17:50;7.13;;;2.20;;
47659;SDS011;33403;43.608;1.458;2022-08-24T06:20:16;3.50;;;1.80;;
47659;SDS011;33403;43.608;1.458;2022-08-24T06:22:42;2.92;;;2.00;;
47659;SDS011;33403;43.608;1.458;2022-08-24T06:25:08;3.50;;;1.83;;
47659;SDS011;33403;43.608;1.458;2022-08-24T06:27:52;2.90;;;2.13;;
47659;SDS011;33403;43.608;1.458;2022-08-24T06:30:18;4.63;;;1.90;;
47659;SDS011;33403;43.608;1.458;2022-08-24T06:32:44;3.10;;;2.10;;
47659;SDS011;33403;43.608;1.458;2022-08-24T06:35:11;2.45;;;2.00;;
47659;SDS011;33403;43.608;1.458;2022-08-24T06:37:37;3.13;;;1.92;;
47659;SDS011;33403;43.608;1.458;2022-08-24T06:40:03;3.83;;;2.15;;
47659;SDS011;33403;43.608;1.458;2022-08-24T06:42:29;3.75;;;2.08;;
47659;SDS011;33403;43.608;1.458;2022-08-24T06:44:55;5.05;;;1.80;;
47659;SDS011;33403;43.608;1.458;2022-08-24T06:47:21;3.15;;;2.17;;
47659;SDS011;33403;43.608;1.458;2022-08-24T06:49:47;3.97;;;1.92;;
47659;SDS011;33403;43.608;1.458;2022-08-24T06:52:13;5.00;;;2.20;;
47659;SDS011;33403;43.608;1.458;2022-08-24T06:54:40;3.92;;;2.30;;
47659;SDS011;33403;43.608;1.458;2022-08-24T06:57:06;3.67;;;2.20;;
47659;SDS011;33403;43.608;1.458;2022-08-24T06:59:32;5.25;;;2.03;;
47659;SDS011;33403;43.608;1.458;2022-08-24T07:01:59;4.68;;;2.35;;
47659;SDS011;33403;43.608;1.458;2022-08-24T07:04:25;4.45;;;2.53;;
47659;SDS011;33403;43.608;1.458;2022-08-24T07:06:52;3.35;;;2.70;;
47659;SDS011;33403;43.608;1.458;2022-08-24T07:09:18;3.83;;;2.42;;
47659;SDS011;33403;43.608;1.458;2022-08-24T07:11:45;4.53;;;2.30;;
47659;SDS011;33403;43.608;1.458;2022-08-24T07:14:12;6.13;;;2.55;;
47659;SDS011;33403;43.608;1.458;2022-08-24T07:16:38;3.35;;;2.50;;
47659;SDS011;33403;43.608;1.458;2022-08-24T07:19:04;5.35;;;2.60;;
47659;SDS011;33403;43.608;1.458;2022-08-24T07:21:30;4.30;;;2.20;;
47659;SDS011;33403;43.608;1.458;2022-08-24T07:23:57;6.22;;;2.28;;
47659;SDS011;33403;43.608;1.458;2022-08-24T07:26:25;8.68;;;2.78;;
47659;SDS011;33403;43.608;1.458;2022-08-24T07:28:52;3.85;;;2.47;;
47659;SDS011;33403;43.608;1.458;2022-08-24T07:31:20;3.28;;;1.92;;
47659;SDS011;33403;43.608;1.458;2022-08-24T07:33:46;3.40;;;2.20;;
47659;SDS011;33403;43.608;1.458;2022-08-24T07:36:12;3.47;;;2.00;;
47659;SDS011;33403;43.608;1.458;2022-08-24T07:38:39;2.72;;;2.20;;
47659;SDS011;33403;43.608;1.458;2022-08-24T07:41:05;3.40;;;2.22;;
47659;SDS011;33403;43.608;1.458;2022-08-24T07:43:31;3.28;;;2.20;;
47659;SDS011;33403;43.608;1.458;2022-08-24T07:45:57;3.38;;;2.22;;
47659;SDS011;33403;43.608;1.458;2022-08-24T07:48:23;3.83;;;2.22;;
47659;SDS011;33403;43.608;1.458;2022-08-24T07:50:49;5.30;;;2.10;;
47659;SDS011;33403;43.608;1.458;2022-08-24T07:53:16;3.60;;;2.05;;
47659;SDS011;33403;43.608;1.458;2022-08-24T07:55:51;5.45;;;2.30;;
47659;SDS011;33403;43.608;1.458;2022-08-24T07:58:17;3.33;;;2.15;;
47659;SDS011;33403;43.608;1.458;2022-08-24T08:00:45;4.75;;;2.20;;
47659;SDS011;33403;43.608;1.458;2022-08-24T08:03:11;3.08;;;2.58;;
47659;SDS011;33403;43.608;1.458;2022-08-24T08:05:38;3.72;;;2.20;;
47659;SDS011;33403;43.608;1.458;2022-08-24T08:08:07;3.10;;;2.22;;
47659;SDS011;33403;43.608;1.458;2022-08-24T08:10:33;4.07;;;2.40;;
47659;SDS011;33403;43.608;1.458;2022-08-24T08:13:03;5.57;;;2.28;;
47659;SDS011;33403;43.608;1.458;2022-08-24T08:15:29;2.08;;;1.92;;
47659;SDS011;33403;43.608;1.458;2022-08-24T08:17:56;2.45;;;1.90;;
47659;SDS011;33403;43.608;1.458;2022-08-24T08:20:22;2.22;;;2.03;;
47659;SDS011;33403;43.608;1.458;2022-08-24T08:22:48;1.67;;;1.58;;
47659;SDS011;33403;43.608;1.458;2022-08-24T08:25:33;2.47;;;2.03;;
47659;SDS011;33403;43.608;1.458;2022-08-24T08:28:02;2.22;;;2.00;;
47659;SDS011;33403;43.608;1.458;2022-08-24T08:30:29;3.00;;;2.08;;
47659;SDS011;33403;43.608;1.458;2022-08-24T08:32:55;2.90;;;1.90;;
47659;SDS011;33403;43.608;1.458;2022-08-24T08:35:21;2.05;;;1.77;;
47659;SDS011;33403;43.608;1.458;2022-08-24T08:37:47;3.15;;;1.75;;
47659;SDS011;33403;43.608;1.458;2022-08-24T08:40:40;2.05;;;1.60;;
47659;SDS011;33403;43.608;1.458;2022-08-24T08:46:01;2.17;;;1.52;;
47659;SDS011;33403;43.608;1.458;2022-08-24T08:59:04;1.88;;;1.30;;
47659;SDS011;33403;43.608;1.458;2022-08-24T09:29:17;1.55;;;1.40;;
47659;SDS011;33403;43.608;1.458;2022-08-24T09:34:15;1.35;;;1.10;;
47659;SDS011;33403;43.608;1.458;2022-08-24T09:36:58;3.85;;;1.42;;
47659;SDS011;33403;43.608;1.458;2022-08-24T09:57:47;1.75;;;1.23;;
47659;SDS011;33403;43.608;1.458;2022-08-24T10:00:27;1.10;;;1.00;;
47659;SDS011;33403;43.608;1.458;2022-08-24T10:02:57;1.27;;;1.17;;
47659;SDS011;33403;43.608;1.458;2022-08-24T10:10:38;2.20;;;1.10;;
47659;SDS011;33403;43.608;1.458;2022-08-24T10:13:13;1.20;;;1.00;;
47659;SDS011;33403;43.608;1.458;2022-08-24T10:18:23;1.40;;;1.30;;
47659;SDS011;33403;43.608;1.458;2022-08-24T10:20:59;2.40;;;1.08;;
47659;SDS011;33403;43.608;1.458;2022-08-24T10:31:42;1.33;;;1.00;;
47659;SDS011;33403;43.608;1.458;2022-08-24T10:34:25;0.90;;;0.90;;
47659;SDS011;33403;43.608;1.458;2022-08-24T10:37:08;0.90;;;0.90;;
47659;SDS011;33403;43.608;1.458;2022-08-24T10:47:36;1.17;;;1.00;;
47659;SDS011;33403;43.608;1.458;2022-08-24T10:55:15;1.05;;;1.00;;
47659;SDS011;33403;43.608;1.458;2022-08-24T10:58:06;1.73;;;1.10;;
47659;SDS011;33403;43.608;1.458;2022-08-24T11:00:30;1.08;;;0.98;;
47659;SDS011;33403;43.608;1.458;2022-08-24T11:05:37;1.30;;;0.82;;
47659;SDS011;33403;43.608;1.458;2022-08-24T11:08:05;1.60;;;0.85;;
47659;SDS011;33403;43.608;1.458;2022-08-24T11:10:32;1.27;;;0.77;;
47659;SDS011;33403;43.608;1.458;2022-08-24T11:15:58;0.80;;;0.80;;
47659;SDS011;33403;43.608;1.458;2022-08-24T11:18:25;0.95;;;0.85;;
47659;SDS011;33403;43.608;1.458;2022-08-24T11:20:53;0.95;;;0.85;;
47659;SDS011;33403;43.608;1.458;2022-08-24T11:23:23;0.80;;;0.80;;
47659;SDS011;33403;43.608;1.458;2022-08-24T11:25:56;0.80;;;0.80;;
47659;SDS011;33403;43.608;1.458;2022-08-24T11:28:27;0.90;;;0.70;;
47659;SDS011;33403;43.608;1.458;2022-08-24T11:30:55;0.93;;;0.82;;
47659;SDS011;33403;43.608;1.458;2022-08-24T11:33:31;1.00;;;0.90;;
47659;SDS011;33403;43.608;1.458;2022-08-24T11:35:58;1.08;;;0.80;;
47659;SDS011;33403;43.608;1.458;2022-08-24T11:38:27;1.95;;;0.70;;
47659;SDS011;33403;43.608;1.458;2022-08-24T11:41:06;1.15;;;0.82;;
47659;SDS011;33403;43.608;1.458;2022-08-24T11:43:44;0.82;;;0.70;;
47659;SDS011;33403;43.608;1.458;2022-08-24T11:51:40;0.80;;;0.80;;
47659;SDS011;33403;43.608;1.458;2022-08-24T11:54:22;1.38;;;0.90;;
47659;SDS011;33403;43.608;1.458;2022-08-24T11:57:05;1.00;;;0.90;;
47659;SDS011;33403;43.608;1.458;2022-08-24T11:59:49;1.05;;;0.90;;
47659;SDS011;33403;43.608;1.458;2022-08-24T12:07:48;1.15;;;0.90;;
47659;SDS011;33403;43.608;1.458;2022-08-24T12:13:05;1.50;;;0.95;;
47659;SDS011;33403;43.608;1.458;2022-08-24T12:15:42;1.70;;;0.93;;
47659;SDS011;33403;43.608;1.458;2022-08-24T12:20:43;0.80;;;0.80;;
47659;SDS011;33403;43.608;1.458;2022-08-24T12:25:55;1.10;;;0.95;;
47659;SDS011;33403;43.608;1.458;2022-08-24T12:28:31;3.95;;;1.00;;
47659;SDS011;33403;43.608;1.458;2022-08-24T12:31:02;1.35;;;1.10;;
47659;SDS011;33403;43.608;1.458;2022-08-24T12:33:31;1.20;;;1.00;;
47659;SDS011;33403;43.608;1.458;2022-08-24T12:36:00;2.70;;;0.82;;
47659;SDS011;33403;43.608;1.458;2022-08-24T12:38:28;0.90;;;0.90;;
47659;SDS011;33403;43.608;1.458;2022-08-24T12:41:02;2.15;;;0.98;;
47659;SDS011;33403;43.608;1.458;2022-08-24T12:46:03;1.90;;;0.90;;
47659;SDS011;33403;43.608;1.458;2022-08-24T12:48:41;0.90;;;0.75;;
47659;SDS011;33403;43.608;1.458;2022-08-24T13:01:26;1.10;;;1.00;;
47659;SDS011;33403;43.608;1.458;2022-08-24T13:06:42;1.73;;;0.90;;
47659;SDS011;33403;43.608;1.458;2022-08-24T13:09:13;0.88;;;0.88;;
47659;SDS011;33403;43.608;1.458;2022-08-24T13:11:40;1.13;;;0.95;;
47659;SDS011;33403;43.608;1.458;2022-08-24T13:21:55;0.90;;;0.90;;
47659;SDS011;33403;43.608;1.458;2022-08-24T13:27:44;1.27;;;0.88;;
47659;SDS011;33403;43.608;1.458;2022-08-24T13:32:36;1.10;;;1.00;;
47659;SDS011;33403;43.608;1.458;2022-08-24T13:40:33;2.08;;;0.90;;
47659;SDS011;33403;43.608;1.458;2022-08-24T13:43:28;1.13;;;0.93;;
47659;SDS011;33403;43.608;1.458;2022-08-24T13:45:56;1.90;;;0.90;;
47659;SDS011;33403;43.608;1.458;2022-08-24T13:51:24;1.52;;;1.00;;
47659;SDS011;33403;43.608;1.458;2022-08-24T13:54:02;2.22;;;0.90;;
47659;SDS011;33403;43.608;1.458;2022-08-24T13:59:14;1.45;;;0.90;;
47659;SDS011;33403;43.608;1.458;2022-08-24T14:12:34;0.85;;;0.85;;
47659;SDS011;33403;43.608;1.458;2022-08-24T14:23:02;1.08;;;0.70;;
47659;SDS011;33403;43.608;1.458;2022-08-24T14:25:31;1.35;;;0.80;;
47659;SDS011;33403;43.608;1.458;2022-08-24T14:43:41;1.65;;;0.70;;
47659;SDS011;33403;43.608;1.458;2022-08-24T14:46:59;0.60;;;0.60;;
47659;SDS011;33403;43.608;1.458;2022-08-24T14:52:00;1.77;;;0.70;;
47659;SDS011;33403;43.608;1.458;2022-08-24T14:54:34;0.60;;;0.60;;
47659;SDS011;33403;43.608;1.458;2022-08-24T15:02:43;0.70;;;0.70;;
47659;SDS011;33403;43.608;1.458;2022-08-24T15:07:58;0.85;;;0.70;;
47659;SDS011;33403;43.608;1.458;2022-08-24T15:10:32;0.88;;;0.70;;
47659;SDS011;33403;43.608;1.458;2022-08-24T15:12:59;0.70;;;0.70;;
47659;SDS011;33403;43.608;1.458;2022-08-24T15:20:52;0.70;;;0.60;;
47659;SDS011;33403;43.608;1.458;2022-08-24T15:23:44;0.82;;;0.80;;
47659;SDS011;33403;43.608;1.458;2022-08-24T15:27:17;0.60;;;0.60;;
47659;SDS011;33403;43.608;1.458;2022-08-24T15:29:19;0.80;;;0.70;;
47659;SDS011;33403;43.608;1.458;2022-08-24T15:32:03;0.77;;;0.70;;
47659;SDS011;33403;43.608;1.458;2022-08-24T15:37:24;0.60;;;0.60;;
47659;SDS011;33403;43.608;1.458;2022-08-24T15:39:50;0.88;;;0.55;;
47659;SDS011;33403;43.608;1.458;2022-08-24T15:42:16;1.02;;;0.68;;
47659;SDS011;33403;43.608;1.458;2022-08-24T15:44:43;0.70;;;0.70;;
47659;SDS011;33403;43.608;1.458;2022-08-24T15:52:35;0.70;;;0.70;;
47659;SDS011;33403;43.608;1.458;2022-08-24T15:55:02;0.70;;;0.70;;
47659;SDS011;33403;43.608;1.458;2022-08-24T15:57:30;1.75;;;0.70;;
47659;SDS011;33403;43.608;1.458;2022-08-24T16:02:31;0.98;;;0.77;;
47659;SDS011;33403;43.608;1.458;2022-08-24T16:10:30;1.00;;;0.90;;
47659;SDS011;33403;43.608;1.458;2022-08-24T16:13:08;1.13;;;0.60;;
47659;SDS011;33403;43.608;1.458;2022-08-24T16:15:35;0.73;;;0.70;;
47659;SDS011;33403;43.608;1.458;2022-08-24T16:18:09;1.38;;;0.73;;
47659;SDS011;33403;43.608;1.458;2022-08-24T16:20:35;1.25;;;0.70;;
47659;SDS011;33403;43.608;1.458;2022-08-24T16:23:05;0.60;;;0.60;;
47659;SDS011;33403;43.608;1.458;2022-08-24T16:25:32;0.80;;;0.80;;
47659;SDS011;33403;43.608;1.458;2022-08-24T16:33:07;1.67;;;0.70;;
47659;SDS011;33403;43.608;1.458;2022-08-24T16:35:34;0.70;;;0.65;;
47659;SDS011;33403;43.608;1.458;2022-08-24T16:38:00;0.75;;;0.60;;
47659;SDS011;33403;43.608;1.458;2022-08-24T16:40:27;0.85;;;0.85;;
47659;SDS011;33403;43.608;1.458;2022-08-24T16:42:55;2.58;;;0.90;;
47659;SDS011;33403;43.608;1.458;2022-08-24T16:45:21;0.80;;;0.60;;
47659;SDS011;33403;43.608;1.458;2022-08-24T16:47:47;0.60;;;0.60;;
47659;SDS011;33403;43.608;1.458;2022-08-24T16:50:15;1.20;;;0.68;;
47659;SDS011;33403;43.608;1.458;2022-08-24T16:52:41;0.57;;;0.57;;
47659;SDS011;33403;43.608;1.458;2022-08-24T16:55:07;0.77;;;0.65;;
47659;SDS011;33403;43.608;1.458;2022-08-24T16:57:34;2.05;;;0.80;;
47659;SDS011;33403;43.608;1.458;2022-08-24T17:00:03;0.90;;;0.80;;
47659;SDS011;33403;43.608;1.458;2022-08-24T17:02:30;1.98;;;0.70;;
47659;SDS011;33403;43.608;1.458;2022-08-24T17:04:57;0.95;;;0.70;;
47659;SDS011;33403;43.608;1.458;2022-08-24T17:07:23;0.93;;;0.80;;
47659;SDS011;33403;43.608;1.458;2022-08-24T17:09:51;1.98;;;0.80;;
47659;SDS011;33403;43.608;1.458;2022-08-24T17:12:17;1.92;;;1.15;;
47659;SDS011;33403;43.608;1.458;2022-08-24T17:14:43;1.88;;;1.00;;
47659;SDS011;33403;43.608;1.458;2022-08-24T17:17:14;3.10;;;2.40;;
47659;SDS011;33403;43.608;1.458;2022-08-24T17:19:41;4.18;;;3.45;;
47659;SDS011;33403;43.608;1.458;2022-08-24T17:22:07;3.92;;;2.75;;
47659;SDS011;33403;43.608;1.458;2022-08-24T17:24:33;2.67;;;2.10;;
47659;SDS011;33403;43.608;1.458;2022-08-24T17:27:00;2.85;;;2.55;;
47659;SDS011;33403;43.608;1.458;2022-08-24T17:29:27;4.88;;;3.92;;
47659;SDS011;33403;43.608;1.458;2022-08-24T17:31:53;4.60;;;3.05;;
47659;SDS011;33403;43.608;1.458;2022-08-24T17:34:20;3.88;;;3.20;;
47659;SDS011;33403;43.608;1.458;2022-08-24T17:36:47;5.10;;;3.92;;
47659;SDS011;33403;43.608;1.458;2022-08-24T17:39:13;4.15;;;3.38;;
47659;SDS011;33403;43.608;1.458;2022-08-24T17:41:41;3.42;;;2.97;;
47659;SDS011;33403;43.608;1.458;2022-08-24T17:44:08;4.20;;;3.80;;
47659;SDS011;33403;43.608;1.458;2022-08-24T17:46:34;2.50;;;1.40;;
47659;SDS011;33403;43.608;1.458;2022-08-24T17:49:01;2.47;;;1.60;;
47659;SDS011;33403;43.608;1.458;2022-08-24T17:51:27;5.10;;;1.60;;
47659;SDS011;33403;43.608;1.458;2022-08-24T17:53:53;1.17;;;1.08;;
47659;SDS011;33403;43.608;1.458;2022-08-24T17:56:20;3.25;;;2.05;;
47659;SDS011;33403;43.608;1.458;2022-08-24T17:58:46;1.52;;;1.20;;
47659;SDS011;33403;43.608;1.458;2022-08-24T18:01:30;3.42;;;1.20;;
47659;SDS011;33403;43.608;1.458;2022-08-24T18:03:56;1.75;;;1.33;;
47659;SDS011;33403;43.608;1.458;2022-08-24T18:06:23;1.73;;;1.00;;
47659;SDS011;33403;43.608;1.458;2022-08-24T18:08:51;2.38;;;1.40;;
47659;SDS011;33403;43.608;1.458;2022-08-24T18:11:20;2.00;;;1.30;;
47659;SDS011;33403;43.608;1.458;2022-08-24T18:13:47;2.40;;;1.30;;
47659;SDS011;33403;43.608;1.458;2022-08-24T18:16:18;2.03;;;1.30;;
47659;SDS011;33403;43.608;1.458;2022-08-24T18:18:46;2.08;;;1.27;;
47659;SDS011;33403;43.608;1.458;2022-08-24T18:21:14;1.50;;;1.33;;
47659;SDS011;33403;43.608;1.458;2022-08-24T18:23:40;1.98;;;1.33;;
47659;SDS011;33403;43.608;1.458;2022-08-24T18:26:06;1.90;;;1.50;;
47659;SDS011;33403;43.608;1.458;2022-08-24T18:28:34;2.63;;;1.33;;
47659;SDS011;33403;43.608;1.458;2022-08-24T18:31:00;2.30;;;1.33;;
47659;SDS011;33403;43.608;1.458;2022-08-24T18:33:26;2.95;;;1.55;;
47659;SDS011;33403;43.608;1.458;2022-08-24T18:35:52;2.20;;;1.38;;
47659;SDS011;33403;43.608;1.458;2022-08-24T18:38:18;3.75;;;1.50;;
47659;SDS011;33403;43.608;1.458;2022-08-24T18:40:44;2.33;;;1.35;;
47659;SDS011;33403;43.608;1.458;2022-08-24T18:43:11;2.50;;;1.48;;
47659;SDS011;33403;43.608;1.458;2022-08-24T18:45:38;1.55;;;1.40;;